createdAt,value
2023-01-22T00:01:09.917Z,4.60
2023-01-22T00:03:37.552Z,4.90
2023-01-22T00:06:05.261Z,4.25
2023-01-22T00:08:31.789Z,6.45
2023-01-22T00:10:58.673Z,3.63
2023-01-22T00:13:26.490Z,3.22
2023-01-22T00:15:57.431Z,4.97
2023-01-22T00:18:24.677Z,3.50
2023-01-22T00:20:53.668Z,4.43
2023-01-22T00:23:21.431Z,4.10
2023-01-22T00:25:47.812Z,3.75
2023-01-22T00:28:14.265Z,4.15
2023-01-22T00:30:40.749Z,4.43
2023-01-22T00:33:07.068Z,5.38
2023-01-22T00:35:36.560Z,5.38
2023-01-22T00:38:04.279Z,4.25
2023-01-22T00:40:30.636Z,4.07
2023-01-22T00:42:56.950Z,4.75
2023-01-22T00:45:23.919Z,4.65
2023-01-22T00:47:51.387Z,5.78
2023-01-22T00:50:19.536Z,4.15
2023-01-22T00:52:46.651Z,4.80
2023-01-22T00:55:12.990Z,4.68
2023-01-22T00:57:39.347Z,4.63
2023-01-22T01:00:07.096Z,3.80
2023-01-22T01:02:33.405Z,4.63
2023-01-22T01:05:01.791Z,3.55
2023-01-22T01:07:28.507Z,4.78
2023-01-22T01:09:55.070Z,4.10
2023-01-22T01:12:21.390Z,4.88
2023-01-22T01:14:48.087Z,5.32
2023-01-22T01:17:14.421Z,3.28
2023-01-22T01:19:41.258Z,4.30
2023-01-22T01:22:08.098Z,5.43
2023-01-22T01:24:36.369Z,5.50
2023-01-22T01:27:03.201Z,4.05
2023-01-22T01:29:29.524Z,5.68
2023-01-22T01:31:57.748Z,4.38
2023-01-22T01:34:24.480Z,4.78
2023-01-22T01:36:50.782Z,5.97
2023-01-22T01:39:17.249Z,4.85
2023-01-22T01:41:44.275Z,7.20
2023-01-22T01:44:22.427Z,4.95
2023-01-22T01:46:54.614Z,4.43
2023-01-22T01:49:37.692Z,5.47
2023-01-22T01:52:12.781Z,5.63
2023-01-22T01:54:42.714Z,5.82
2023-01-22T01:57:20.282Z,5.38
2023-01-22T01:59:48.915Z,6.32
2023-01-22T02:02:15.762Z,6.20
2023-01-22T02:04:42.517Z,4.50
2023-01-22T02:07:08.903Z,5.88
2023-01-22T02:09:35.263Z,3.70
2023-01-22T02:12:03.037Z,6.10
2023-01-22T02:14:34.784Z,5.72
2023-01-22T02:17:03.113Z,4.55
2023-01-22T02:19:29.439Z,4.15
2023-01-22T02:21:55.755Z,2.90
2023-01-22T02:24:22.421Z,5.85
2023-01-22T02:26:48.847Z,4.60
2023-01-22T02:29:15.248Z,6.13
2023-01-22T02:31:43.172Z,5.20
2023-01-22T02:34:10.200Z,3.72
2023-01-22T02:36:38.724Z,4.95
2023-01-22T02:39:05.703Z,6.28
2023-01-22T02:41:32.157Z,7.43
2023-01-22T02:43:58.504Z,5.97
2023-01-22T02:46:26.284Z,4.47
2023-01-22T02:48:52.859Z,5.60
2023-01-22T02:51:19.449Z,6.78
2023-01-22T02:53:46.140Z,5.47
2023-01-22T02:56:12.611Z,6.00
2023-01-22T02:58:38.931Z,5.15
2023-01-22T03:01:19.301Z,4.78
2023-01-22T03:04:11.155Z,6.45
2023-01-22T03:06:43.167Z,6.25
2023-01-22T03:09:11.510Z,5.47
2023-01-22T03:11:39.910Z,5.25
2023-01-22T03:14:25.896Z,5.65
2023-01-22T03:17:11.054Z,5.82
2023-01-22T03:19:56.216Z,5.43
2023-01-22T03:22:22.571Z,5.78
2023-01-22T03:24:51.075Z,5.78
2023-01-22T03:27:18.939Z,6.90
2023-01-22T03:29:45.714Z,5.97
2023-01-22T03:32:12.510Z,5.85
2023-01-22T03:34:39.603Z,6.07
2023-01-22T03:37:07.153Z,5.97
2023-01-22T03:39:33.819Z,6.93
2023-01-22T03:42:01.966Z,5.88
2023-01-22T03:44:28.278Z,6.53
2023-01-22T03:46:54.599Z,6.18
2023-01-22T03:49:21.583Z,5.57
2023-01-22T03:51:47.886Z,6.45
2023-01-22T03:54:16.207Z,6.80
2023-01-22T03:56:43.839Z,6.47
2023-01-22T03:59:11.013Z,6.28
2023-01-22T04:01:37.849Z,7.35
2023-01-22T04:04:05.068Z,6.28
2023-01-22T04:06:31.500Z,6.28
2023-01-22T04:08:57.824Z,6.32
2023-01-22T04:11:24.819Z,6.30
2023-01-22T04:13:51.356Z,5.78
2023-01-22T04:16:17.900Z,6.43
2023-01-22T04:18:44.812Z,6.13
2023-01-22T04:21:11.275Z,6.80
2023-01-22T04:23:37.625Z,5.80
2023-01-22T04:26:04.501Z,6.68
2023-01-22T04:28:30.856Z,6.00
2023-01-22T04:30:57.508Z,6.88
2023-01-22T04:33:24.523Z,6.03
2023-01-22T04:35:52.885Z,6.72
2023-01-22T04:38:19.364Z,6.43
2023-01-22T04:40:46.071Z,6.65
2023-01-22T04:43:12.474Z,5.95
2023-01-22T04:45:39.034Z,6.28
2023-01-22T04:48:06.326Z,5.05
2023-01-22T04:50:33.609Z,5.07
2023-01-22T04:53:01.096Z,6.72
2023-01-22T04:55:29.021Z,5.60
2023-01-22T04:57:57.625Z,6.30
2023-01-22T05:00:25.097Z,6.50
2023-01-22T05:02:59.716Z,6.18
2023-01-22T05:05:26.913Z,6.20
2023-01-22T05:07:53.681Z,6.22
2023-01-22T05:10:21.585Z,6.65
2023-01-22T05:12:48.893Z,7.05
2023-01-22T05:15:24.150Z,6.40
2023-01-22T05:17:52.583Z,5.88
2023-01-22T05:20:19.317Z,7.32
2023-01-22T05:22:45.787Z,6.88
2023-01-22T05:25:13.206Z,6.43
2023-01-22T05:27:39.525Z,6.88
2023-01-22T05:30:07.062Z,6.38
2023-01-22T05:32:34.241Z,6.20
2023-01-22T05:35:00.563Z,6.38
2023-01-22T05:37:27.005Z,6.28
2023-01-22T05:39:53.879Z,6.82
2023-01-22T05:42:21.528Z,6.03
2023-01-22T05:44:47.969Z,6.55
2023-01-22T05:47:15.318Z,5.97
2023-01-22T05:49:42.094Z,6.20
2023-01-22T05:52:11.638Z,6.63
2023-01-22T05:54:39.598Z,6.47
2023-01-22T05:57:07.235Z,5.70
2023-01-22T05:59:33.602Z,5.68
2023-01-22T06:02:00.017Z,6.60
2023-01-22T06:04:27.260Z,6.65
2023-01-22T06:06:53.683Z,6.43
2023-01-22T06:09:20.069Z,6.22
2023-01-22T06:11:47.650Z,6.45
2023-01-22T06:14:13.984Z,6.40
2023-01-22T06:16:40.333Z,5.90
2023-01-22T06:19:07.252Z,5.97
2023-01-22T06:21:33.569Z,6.13
2023-01-22T06:23:59.886Z,5.55
2023-01-22T06:26:26.712Z,7.60
2023-01-22T06:28:55.037Z,6.57
2023-01-22T06:31:21.452Z,7.03
2023-01-22T06:33:48.370Z,6.97
2023-01-22T06:36:14.675Z,6.35
2023-01-22T06:38:40.975Z,6.10
2023-01-22T06:41:07.794Z,4.75
2023-01-22T06:43:34.170Z,6.60
2023-01-22T06:46:02.653Z,6.63
2023-01-22T06:48:29.624Z,7.47
2023-01-22T06:50:59.990Z,6.95
2023-01-22T06:53:26.853Z,6.47
2023-01-22T06:55:53.887Z,6.15
2023-01-22T06:58:20.206Z,6.75
2023-01-22T07:00:46.587Z,7.38
2023-01-22T07:03:13.826Z,7.20
2023-01-22T07:05:40.152Z,6.10
2023-01-22T07:08:06.552Z,6.22
2023-01-22T07:10:33.232Z,7.32
2023-01-22T07:12:59.592Z,5.65
2023-01-22T07:15:26.295Z,6.95
2023-01-22T07:17:54.794Z,6.40
2023-01-22T07:20:23.093Z,6.28
2023-01-22T07:22:49.916Z,6.28
2023-01-22T07:25:17.259Z,6.25
2023-01-22T07:27:43.719Z,6.28
2023-01-22T07:30:11.400Z,6.53
2023-01-22T07:32:41.493Z,6.65
2023-01-22T07:35:08.120Z,7.78
2023-01-22T07:37:34.720Z,5.82
2023-01-22T07:40:01.644Z,6.80
2023-01-22T07:42:27.969Z,7.00
2023-01-22T07:44:54.270Z,6.78
2023-01-22T07:47:21.045Z,7.32
2023-01-22T07:49:47.349Z,7.00
2023-01-22T07:52:16.097Z,6.80
2023-01-22T07:54:42.692Z,6.78
2023-01-22T07:57:14.273Z,5.95
2023-01-22T07:59:40.967Z,6.25
2023-01-22T08:02:12.283Z,6.00
2023-01-22T08:04:40.454Z,7.65
2023-01-22T08:07:06.893Z,7.97
2023-01-22T08:09:36.349Z,8.18
2023-01-22T08:12:02.671Z,7.10
2023-01-22T08:14:28.994Z,6.32
2023-01-22T08:16:55.804Z,7.25
2023-01-22T08:19:22.126Z,6.65
2023-01-22T08:21:48.437Z,8.15
2023-01-22T08:24:14.963Z,7.35
2023-01-22T08:26:41.322Z,7.78
2023-01-22T08:29:07.935Z,7.43
2023-01-22T08:31:35.741Z,8.05
2023-01-22T08:34:02.608Z,8.15
2023-01-22T08:36:28.910Z,8.43
2023-01-22T08:38:58.019Z,7.05
2023-01-22T08:41:24.627Z,7.30
2023-01-22T08:43:52.454Z,7.60
2023-01-22T08:46:19.925Z,6.65
2023-01-22T08:48:47.258Z,7.88
2023-01-22T08:51:13.672Z,7.07
2023-01-22T08:53:40.423Z,7.10
2023-01-22T08:56:07.129Z,7.82
2023-01-22T08:58:33.472Z,6.15
2023-01-22T09:01:00.305Z,6.90
2023-01-22T09:03:26.685Z,7.60
2023-01-22T09:05:53.008Z,7.13
2023-01-22T09:08:20.748Z,6.50
2023-01-22T09:10:47.264Z,5.95
2023-01-22T09:13:13.631Z,5.30
2023-01-22T09:15:41.009Z,4.97
2023-01-22T09:18:07.857Z,4.85
2023-01-22T09:20:34.214Z,3.53
2023-01-22T09:23:00.978Z,3.25
2023-01-22T09:25:27.378Z,3.55
2023-01-22T09:28:05.312Z,4.15
2023-01-22T09:30:32.113Z,4.03
2023-01-22T09:32:58.634Z,3.25
2023-01-22T09:35:25.663Z,4.43
2023-01-22T09:37:51.973Z,5.00
2023-01-22T09:40:36.164Z,5.38
2023-01-22T09:43:30.571Z,4.07
2023-01-22T09:46:01.930Z,5.53
2023-01-22T09:48:35.339Z,5.45
2023-01-22T09:51:02.896Z,3.17
2023-01-22T09:53:30.163Z,6.82
2023-01-22T09:55:57.629Z,4.03
2023-01-22T09:58:25.426Z,4.10
2023-01-22T10:01:00.820Z,2.78
2023-01-22T10:03:42.079Z,3.88
2023-01-22T10:06:22.738Z,4.22
2023-01-22T10:09:05.033Z,6.30
2023-01-22T10:11:31.389Z,5.97
2023-01-22T10:14:00.471Z,23.23
2023-01-22T10:16:27.313Z,8.35
2023-01-22T10:19:20.291Z,4.28
2023-01-22T10:21:53.605Z,4.78
2023-01-22T10:24:19.953Z,5.18
2023-01-22T10:26:49.854Z,5.25
2023-01-22T10:29:27.753Z,4.60
2023-01-22T10:32:00.393Z,4.82
2023-01-22T10:34:35.703Z,4.70
2023-01-22T10:37:04.899Z,3.53
2023-01-22T10:39:42.415Z,4.45
2023-01-22T10:42:24.732Z,4.60
2023-01-22T10:44:56.174Z,5.05
2023-01-22T10:47:27.567Z,4.75
2023-01-22T10:50:07.430Z,6.18
2023-01-22T10:52:42.170Z,5.07
2023-01-22T10:55:24.203Z,4.47
2023-01-22T10:58:18.064Z,4.40
2023-01-22T11:00:57.150Z,4.95
2023-01-22T11:03:31.043Z,9.10
2023-01-22T11:06:02.588Z,23.48
2023-01-22T11:08:40.519Z,10.35
2023-01-22T11:11:10.953Z,5.63
2023-01-22T11:13:47.622Z,4.97
2023-01-22T11:16:17.374Z,7.00
2023-01-22T11:18:51.966Z,8.75
2023-01-22T11:21:32.157Z,4.38
2023-01-22T11:24:19.698Z,4.32
2023-01-22T11:26:58.824Z,5.13
2023-01-22T11:29:49.807Z,3.03
2023-01-22T11:32:46.727Z,4.53
2023-01-22T11:35:37.180Z,4.32
2023-01-22T11:38:34.018Z,5.50
2023-01-22T11:41:34.325Z,5.03
2023-01-22T11:44:40.459Z,4.28
2023-01-22T11:49:55.327Z,3.35
2023-01-22T11:52:39.983Z,4.00
2023-01-22T11:55:21.509Z,2.63
2023-01-22T11:58:15.459Z,4.78
2023-01-22T12:00:50.633Z,7.88
2023-01-22T12:03:41.487Z,4.75
2023-01-22T12:06:38.803Z,3.88
2023-01-22T12:09:28.092Z,4.28
2023-01-22T12:12:03.260Z,3.75
2023-01-22T12:14:41.649Z,3.38
2023-01-22T12:17:29.435Z,2.90
2023-01-22T12:20:23.073Z,4.15
2023-01-22T12:22:59.267Z,3.08
2023-01-22T12:25:50.981Z,3.35
2023-01-22T12:28:44.909Z,2.45
2023-01-22T12:31:20.303Z,3.65
2023-01-22T12:33:46.684Z,3.75
2023-01-22T12:36:18.588Z,2.72
2023-01-22T12:38:58.145Z,3.08
2023-01-22T12:41:40.712Z,2.63
2023-01-22T12:44:21.924Z,3.30
2023-01-22T12:47:00.919Z,2.72
2023-01-22T12:49:28.010Z,4.30
2023-01-22T12:51:56.360Z,3.70
2023-01-22T12:54:36.391Z,3.15
2023-01-22T12:57:14.584Z,3.65
2023-01-22T12:59:55.837Z,4.43
2023-01-22T13:02:22.544Z,4.22
2023-01-22T13:04:49.119Z,3.28
2023-01-22T13:07:25.443Z,3.60
2023-01-22T13:10:19.740Z,4.68
2023-01-22T13:12:50.252Z,4.10
2023-01-22T13:15:29.302Z,4.18
2023-01-22T13:18:07.198Z,4.60
2023-01-22T13:20:38.003Z,4.07
2023-01-22T13:23:06.513Z,4.45
2023-01-22T13:25:33.901Z,3.65
2023-01-22T13:28:01.996Z,4.70
2023-01-22T13:30:30.909Z,3.95
2023-01-22T13:33:13.983Z,3.40
2023-01-22T13:35:45.144Z,4.03
2023-01-22T13:38:20.084Z,4.80
2023-01-22T13:43:21.330Z,4.40
2023-01-22T13:45:49.148Z,3.78
2023-01-22T13:48:18.658Z,4.22
2023-01-22T13:50:58.108Z,4.63
2023-01-22T13:53:29.528Z,5.30
2023-01-22T13:55:56.003Z,4.03
2023-01-22T13:58:51.666Z,4.30
2023-01-22T14:01:30.716Z,4.35
2023-01-22T14:04:03.047Z,4.47
2023-01-22T14:06:29.837Z,4.90
2023-01-22T14:08:57.739Z,5.38
2023-01-22T14:11:24.515Z,5.38
2023-01-22T14:13:53.401Z,4.78
2023-01-22T14:16:19.768Z,6.07
2023-01-22T14:18:47.178Z,5.75
2023-01-22T14:21:14.187Z,6.10
2023-01-22T14:23:41.669Z,5.63
2023-01-22T14:26:09.760Z,4.15
2023-01-22T14:28:36.790Z,6.07
2023-01-22T14:31:03.476Z,5.70
2023-01-22T14:33:32.768Z,6.20
2023-01-22T14:35:59.170Z,5.40
2023-01-22T14:38:26.877Z,4.70
2023-01-22T14:40:53.441Z,4.60
2023-01-22T14:43:21.035Z,5.63
2023-01-22T14:45:47.518Z,4.88
2023-01-22T14:48:15.626Z,5.43
2023-01-22T14:50:42.872Z,6.07
2023-01-22T14:53:10.238Z,4.63
2023-01-22T14:55:36.618Z,5.13
2023-01-22T14:58:03.474Z,5.05
2023-01-22T15:00:29.989Z,5.70
2023-01-22T15:02:58.116Z,5.60
2023-01-22T15:05:25.912Z,5.72
2023-01-22T15:07:52.636Z,5.90
2023-01-22T15:10:19.935Z,5.82
2023-01-22T15:12:51.853Z,6.10
2023-01-22T15:15:25.177Z,5.47
2023-01-22T15:17:53.538Z,5.20
2023-01-22T15:20:20.794Z,6.30
2023-01-22T15:22:49.415Z,5.68
2023-01-22T15:25:16.130Z,5.63
2023-01-22T15:27:43.811Z,6.15
2023-01-22T15:30:11.354Z,6.43
2023-01-22T15:32:38.149Z,6.72
2023-01-22T15:35:04.725Z,5.53
2023-01-22T15:37:31.073Z,6.88
2023-01-22T15:39:57.846Z,6.15
2023-01-22T15:42:24.147Z,5.35
2023-01-22T15:44:50.455Z,7.57
2023-01-22T15:47:17.188Z,6.65
2023-01-22T15:49:43.560Z,6.50
2023-01-22T15:52:09.880Z,6.47
2023-01-22T15:54:36.755Z,6.70
2023-01-22T15:57:03.171Z,6.85
2023-01-22T15:59:29.608Z,6.28
2023-01-22T16:01:56.383Z,5.75
2023-01-22T16:04:22.694Z,7.35
2023-01-22T16:06:49.100Z,7.07
2023-01-22T16:10:50.656Z,5.70
2023-01-22T16:13:17.070Z,6.75
2023-01-22T16:15:43.511Z,6.28
2023-01-22T16:18:10.271Z,5.68
2023-01-22T16:20:36.665Z,6.00
2023-01-22T16:23:03.105Z,6.35
2023-01-22T16:25:29.906Z,5.43
2023-01-22T16:27:56.746Z,6.18
2023-01-22T16:30:23.120Z,6.15
2023-01-22T16:32:51.507Z,5.35
2023-01-22T16:35:18.408Z,6.00
2023-01-22T16:37:44.993Z,5.72
2023-01-22T16:40:13.014Z,5.70
2023-01-22T16:42:39.451Z,6.25
2023-01-22T16:45:06.708Z,5.88
2023-01-22T16:47:33.109Z,6.05
2023-01-22T16:49:59.495Z,5.80
2023-01-22T16:52:26.283Z,6.47
2023-01-22T16:54:52.740Z,6.38
2023-01-22T16:57:20.108Z,6.40
2023-01-22T16:59:46.604Z,6.70
2023-01-22T17:02:15.795Z,6.45
2023-01-22T17:04:42.282Z,6.20
2023-01-22T17:09:58.397Z,7.07
2023-01-22T17:12:25.013Z,13.90
2023-01-22T17:14:52.640Z,11.65
2023-01-22T17:17:19.625Z,8.75
2023-01-22T17:19:46.404Z,9.07
2023-01-22T17:22:13.310Z,7.18
2023-01-22T17:24:41.364Z,7.40
2023-01-22T17:27:08.603Z,6.78
2023-01-22T17:29:36.190Z,7.45
2023-01-22T17:32:04.093Z,6.70
2023-01-22T17:34:30.839Z,6.38
2023-01-22T17:36:57.468Z,7.35
2023-01-22T17:39:24.255Z,7.40
2023-01-22T17:41:50.690Z,7.35
2023-01-22T17:44:17.534Z,6.63
2023-01-22T17:46:44.146Z,8.15
2023-01-22T17:49:11.192Z,3.05
2023-01-22T17:51:38.132Z,7.00
2023-01-22T17:54:05.909Z,4.90
2023-01-22T17:56:35.426Z,6.20
2023-01-22T17:59:05.281Z,8.73
2023-01-22T18:01:33.880Z,6.68
2023-01-22T18:04:03.264Z,8.00
2023-01-22T18:06:29.699Z,8.50
2023-01-22T18:08:56.770Z,8.52
2023-01-22T18:11:28.168Z,7.63
2023-01-22T18:13:57.106Z,7.78
2023-01-22T18:16:25.198Z,7.53
2023-01-22T18:18:52.608Z,8.30
2023-01-22T18:21:19.954Z,8.40
2023-01-22T18:23:47.189Z,7.78
2023-01-22T18:26:14.987Z,7.68
2023-01-22T18:28:42.205Z,7.95
2023-01-22T18:31:10.197Z,6.53
2023-01-22T18:33:38.248Z,6.72
2023-01-22T18:36:09.029Z,7.53
2023-01-22T18:38:36.907Z,11.15
2023-01-22T18:41:07.389Z,13.57
2023-01-22T18:43:34.575Z,10.70
2023-01-22T18:46:07.366Z,9.45
2023-01-22T18:48:34.132Z,8.63
2023-01-22T18:51:01.057Z,8.27
2023-01-22T18:53:28.903Z,6.95
2023-01-22T18:55:59.741Z,8.35
2023-01-22T18:58:34.073Z,8.93
2023-01-22T19:01:12.436Z,9.90
2023-01-22T19:03:40.675Z,15.80
2023-01-22T19:06:16.373Z,12.23
2023-01-22T19:08:44.798Z,13.13
2023-01-22T19:11:13.033Z,14.30
2023-01-22T19:13:40.956Z,10.45
2023-01-22T19:16:11.877Z,9.05
2023-01-22T19:18:42.727Z,9.15
2023-01-22T19:21:12.772Z,8.50
2023-01-22T19:23:39.175Z,7.28
2023-01-22T19:26:14.507Z,8.73
2023-01-22T19:28:40.953Z,8.45
2023-01-22T19:31:35.671Z,7.38
2023-01-22T19:34:03.255Z,6.65
2023-01-22T19:36:32.541Z,6.95
2023-01-22T19:39:02.464Z,7.95
2023-01-22T19:41:29.141Z,7.75
2023-01-22T19:43:58.297Z,8.20
2023-01-22T19:46:26.099Z,8.00
2023-01-22T19:48:53.656Z,8.38
2023-01-22T19:51:22.603Z,9.13
2023-01-22T19:53:49.163Z,10.43
2023-01-22T19:56:20.883Z,9.05
2023-01-22T19:58:49.231Z,7.80
2023-01-22T20:01:16.765Z,9.82
2023-01-22T20:03:44.054Z,10.20
2023-01-22T20:06:12.743Z,9.30
2023-01-22T20:08:39.565Z,9.40
2023-01-22T20:11:08.255Z,9.48
2023-01-22T20:13:36.677Z,9.52
2023-01-22T20:16:03.490Z,11.70
2023-01-22T20:18:30.600Z,11.57
2023-01-22T20:20:59.344Z,9.88
2023-01-22T20:23:27.841Z,9.52
2023-01-22T20:25:55.233Z,9.65
2023-01-22T20:28:22.187Z,9.10
2023-01-22T20:30:59.665Z,8.85
2023-01-22T20:33:26.920Z,9.35
2023-01-22T20:36:01.555Z,8.88
2023-01-22T20:38:28.776Z,7.57
2023-01-22T20:40:59.764Z,10.20
2023-01-22T20:43:26.908Z,30.17
2023-01-22T20:45:59.555Z,17.52
2023-01-22T20:48:26.525Z,11.63
2023-01-22T20:50:52.991Z,10.35
2023-01-22T20:53:19.834Z,11.90
2023-01-22T20:55:46.605Z,10.45
2023-01-22T20:58:13.037Z,10.52
2023-01-22T21:00:39.897Z,8.90
2023-01-22T21:03:06.481Z,8.95
2023-01-22T21:05:32.981Z,10.60
2023-01-22T21:08:01.697Z,10.45
2023-01-22T21:10:28.458Z,10.55
2023-01-22T21:12:54.861Z,9.77
2023-01-22T21:15:21.284Z,8.23
2023-01-22T21:17:48.077Z,8.68
2023-01-22T21:20:14.528Z,8.40
2023-01-22T21:22:42.272Z,8.95
2023-01-22T21:25:09.522Z,6.07
2023-01-22T21:27:35.940Z,7.70
2023-01-22T21:30:02.565Z,9.32
2023-01-22T21:32:30.565Z,8.40
2023-01-22T21:34:57.097Z,7.50
2023-01-22T21:37:23.971Z,7.00
2023-01-22T21:39:50.352Z,7.68
2023-01-22T21:42:35.994Z,7.03
2023-01-22T21:45:21.007Z,7.25
2023-01-22T21:47:47.824Z,7.15
2023-01-22T21:50:14.682Z,8.35
2023-01-22T21:52:42.443Z,7.65
2023-01-22T21:55:09.843Z,7.60
2023-01-22T21:57:38.150Z,6.70
2023-01-22T22:00:04.952Z,7.47
2023-01-22T22:02:31.435Z,8.02
2023-01-22T22:05:00.177Z,6.97
2023-01-22T22:07:26.577Z,5.95
2023-01-22T22:09:52.971Z,8.20
2023-01-22T22:12:19.405Z,7.65
2023-01-22T22:14:45.802Z,7.18
2023-01-22T22:17:12.275Z,9.50
2023-01-22T22:19:38.782Z,7.72
2023-01-22T22:22:05.149Z,7.30
2023-01-22T22:24:31.874Z,7.40
2023-01-22T22:26:58.654Z,6.68
2023-01-22T22:29:25.029Z,7.05
2023-01-22T22:31:51.836Z,6.97
2023-01-22T22:34:18.263Z,6.72
2023-01-22T22:36:44.651Z,4.50
2023-01-22T22:39:11.096Z,5.97
2023-01-22T22:41:39.448Z,6.68
2023-01-22T22:44:06.905Z,6.72
2023-01-22T22:46:36.428Z,7.07
2023-01-22T22:49:03.778Z,7.28
2023-01-22T22:51:36.169Z,6.22
2023-01-22T22:54:08.365Z,6.60
2023-01-22T22:56:35.064Z,6.55
2023-01-22T22:59:01.923Z,7.43
2023-01-22T23:01:30.694Z,6.88
2023-01-22T23:03:57.667Z,6.90
2023-01-22T23:06:28.641Z,7.60
2023-01-22T23:08:57.570Z,7.20
2023-01-22T23:11:34.428Z,8.82
2023-01-22T23:14:03.116Z,7.53
2023-01-22T23:16:32.011Z,7.38
2023-01-22T23:19:00.429Z,7.30
2023-01-22T23:21:28.548Z,7.43
2023-01-22T23:23:55.726Z,6.75
2023-01-22T23:26:28.153Z,8.27
2023-01-22T23:28:58.458Z,7.15
2023-01-22T23:31:26.722Z,6.75
2023-01-22T23:33:54.440Z,6.30
2023-01-22T23:36:21.415Z,8.45
2023-01-22T23:38:48.496Z,7.28
2023-01-22T23:41:16.935Z,7.05
2023-01-22T23:43:44.310Z,7.53
2023-01-22T23:46:15.923Z,7.25
2023-01-22T23:48:42.356Z,6.82
2023-01-22T23:51:10.618Z,7.53
2023-01-22T23:53:38.127Z,8.15
2023-01-22T23:56:05.318Z,8.38
2023-01-22T23:58:33.327Z,7.72
